createdAt,value
2023-02-15T00:00:39.279Z,16.39
2023-02-15T00:01:39.324Z,16.39
2023-02-15T00:02:39.336Z,16.38
2023-02-15T00:03:39.401Z,16.42
2023-02-15T00:04:39.453Z,16.39
2023-02-15T00:05:39.533Z,16.41
2023-02-15T00:06:39.590Z,16.41
2023-02-15T00:07:39.657Z,16.44
2023-02-15T00:08:39.709Z,16.45
2023-02-15T00:09:39.711Z,16.47
2023-02-15T00:10:39.793Z,16.41
2023-02-15T00:11:39.861Z,16.42
2023-02-15T00:12:39.929Z,16.44
2023-02-15T00:13:39.948Z,16.44
2023-02-15T00:14:40.006Z,16.42
2023-02-15T00:15:40.062Z,16.45
2023-02-15T00:16:40.168Z,16.44
2023-02-15T00:17:40.162Z,16.42
2023-02-15T00:18:40.229Z,16.41
2023-02-15T00:19:40.302Z,16.44
2023-02-15T00:20:40.323Z,16.44
2023-02-15T00:21:40.365Z,16.47
2023-02-15T00:22:40.399Z,16.42
2023-02-15T00:23:40.474Z,16.44
2023-02-15T00:24:40.540Z,16.40
2023-02-15T00:25:40.549Z,16.47
2023-02-15T00:26:40.622Z,16.44
2023-02-15T00:27:40.718Z,16.35
2023-02-15T00:28:40.754Z,16.35
2023-02-15T00:29:40.800Z,16.35
2023-02-15T00:30:40.895Z,16.41
2023-02-15T00:31:40.945Z,16.40
2023-02-15T00:32:40.960Z,16.39
2023-02-15T00:33:41.018Z,16.35
2023-02-15T00:34:41.082Z,16.35
2023-02-15T00:35:41.117Z,16.36
2023-02-15T00:36:41.187Z,16.32
2023-02-15T00:37:41.254Z,16.35
2023-02-15T00:38:41.297Z,16.39
2023-02-15T00:39:41.349Z,16.38
2023-02-15T00:40:41.386Z,16.35
2023-02-15T00:41:41.459Z,16.36
2023-02-15T00:42:41.591Z,16.42
2023-02-15T00:43:41.601Z,16.39
2023-02-15T00:44:41.604Z,16.41
2023-02-15T00:45:41.674Z,16.37
2023-02-15T00:46:41.707Z,16.42
2023-02-15T00:47:41.784Z,16.41
2023-02-15T00:48:41.841Z,16.38
2023-02-15T00:49:41.897Z,16.35
2023-02-15T00:50:41.956Z,16.33
2023-02-15T00:51:41.974Z,16.38
2023-02-15T00:52:42.042Z,16.36
2023-02-15T00:53:42.108Z,16.38
2023-02-15T00:54:42.123Z,16.42
2023-02-15T00:55:42.256Z,16.38
2023-02-15T00:56:42.237Z,16.42
2023-02-15T00:57:42.316Z,16.44
2023-02-15T00:58:42.380Z,16.42
2023-02-15T00:59:42.422Z,16.38
2023-02-15T01:00:42.472Z,16.42
2023-02-15T01:01:42.534Z,16.39
2023-02-15T01:02:42.592Z,16.41
2023-02-15T01:06:42.787Z,16.33
2023-02-15T01:07:42.842Z,16.33
2023-02-15T01:08:42.905Z,16.38
2023-02-15T01:09:42.940Z,16.35
2023-02-15T01:10:43.024Z,16.32
2023-02-15T01:11:43.048Z,16.32
2023-02-15T01:12:43.125Z,16.33
2023-02-15T01:13:43.163Z,16.32
2023-02-15T01:14:43.298Z,16.36
2023-02-15T01:15:44.161Z,16.38
2023-02-15T01:16:43.337Z,16.30
2023-02-15T01:17:43.377Z,16.35
2023-02-15T01:18:43.397Z,16.30
2023-02-15T01:19:43.476Z,16.35
2023-02-15T01:20:43.527Z,16.32
2023-02-15T01:21:43.546Z,16.33
2023-02-15T01:27:43.881Z,16.35
2023-02-15T01:28:43.921Z,16.30
2023-02-15T01:29:43.978Z,16.31
2023-02-15T01:30:44.119Z,16.30
2023-02-15T01:31:44.179Z,16.28
2023-02-15T01:32:44.102Z,16.32
2023-02-15T01:33:44.147Z,16.35
2023-02-15T01:34:44.183Z,16.30
2023-02-15T01:35:44.268Z,16.32
2023-02-15T01:36:44.276Z,16.27
2023-02-15T01:37:44.388Z,16.27
2023-02-15T01:38:44.397Z,16.30
2023-02-15T01:39:44.436Z,16.33
2023-02-15T01:40:44.502Z,16.32
2023-02-15T01:41:44.550Z,16.26
2023-02-15T01:42:44.571Z,16.35
2023-02-15T01:43:44.662Z,16.30
2023-02-15T01:44:44.694Z,16.33
2023-02-15T01:45:44.739Z,16.30
2023-02-15T01:46:44.767Z,16.26
2023-02-15T01:47:44.833Z,16.30
2023-02-15T01:48:44.890Z,16.22
2023-02-15T01:49:44.943Z,16.24
2023-02-15T01:50:44.990Z,16.27
2023-02-15T01:51:45.021Z,16.26
2023-02-15T01:52:45.092Z,16.24
2023-02-15T01:53:45.170Z,16.24
2023-02-15T01:54:45.216Z,16.23
2023-02-15T01:55:45.235Z,16.21
2023-02-15T01:56:45.325Z,16.24
2023-02-15T01:57:45.349Z,16.24
2023-02-15T01:58:45.432Z,16.17
2023-02-15T01:59:45.440Z,16.22
2023-02-15T02:00:45.525Z,16.21
2023-02-15T02:01:45.608Z,16.26
2023-02-15T02:02:45.665Z,16.26
2023-02-15T02:03:45.638Z,16.24
2023-02-15T02:04:45.727Z,16.26
2023-02-15T02:05:45.764Z,16.26
2023-02-15T02:06:45.838Z,16.24
2023-02-15T02:07:45.918Z,16.22
2023-02-15T02:08:45.921Z,16.20
2023-02-15T02:09:45.940Z,16.26
2023-02-15T02:10:46.033Z,16.24
2023-02-15T02:11:46.081Z,16.21
2023-02-15T02:12:46.165Z,16.22
2023-02-15T02:13:46.190Z,16.26
2023-02-15T02:14:46.249Z,16.21
2023-02-15T02:15:46.299Z,16.27
2023-02-15T02:16:46.330Z,16.24
2023-02-15T02:17:46.399Z,16.27
2023-02-15T02:18:46.458Z,16.22
2023-02-15T02:19:46.494Z,16.24
2023-02-15T02:20:46.556Z,16.24
2023-02-15T02:21:46.615Z,16.22
2023-02-15T02:22:46.662Z,16.26
2023-02-15T02:23:46.716Z,16.24
2023-02-15T02:24:46.772Z,16.18
2023-02-15T02:25:46.825Z,16.27
2023-02-15T02:26:46.904Z,16.20
2023-02-15T02:27:46.939Z,16.22
2023-02-15T02:28:46.995Z,16.26
2023-02-15T02:29:47.032Z,16.18
2023-02-15T02:30:47.213Z,16.22
2023-02-15T02:31:47.232Z,16.20
2023-02-15T02:32:47.222Z,16.20
2023-02-15T02:33:47.233Z,16.24
2023-02-15T02:34:47.311Z,16.18
2023-02-15T02:35:47.327Z,16.22
2023-02-15T02:36:47.417Z,16.22
2023-02-15T02:37:47.967Z,16.20
2023-02-15T02:38:47.525Z,16.26
2023-02-15T02:39:47.556Z,16.26
2023-02-15T02:40:47.610Z,16.27
2023-02-15T02:41:47.657Z,16.26
2023-02-15T02:42:47.722Z,16.20
2023-02-15T02:43:47.795Z,16.27
2023-02-15T02:44:47.807Z,16.20
2023-02-15T02:45:47.864Z,16.21
2023-02-15T02:46:47.891Z,16.24
2023-02-15T02:47:47.943Z,16.23
2023-02-15T02:48:47.997Z,16.20
2023-02-15T02:49:48.082Z,16.18
2023-02-15T02:50:48.100Z,16.26
2023-02-15T02:51:48.144Z,16.22
2023-02-15T02:52:48.243Z,16.18
2023-02-15T02:53:48.245Z,16.24
2023-02-15T02:54:48.284Z,16.18
2023-02-15T02:55:48.390Z,16.20
2023-02-15T02:56:48.421Z,16.17
2023-02-15T02:57:48.454Z,16.18
2023-02-15T02:58:48.504Z,16.22
2023-02-15T02:59:48.557Z,16.18
2023-02-15T03:00:48.636Z,16.26
2023-02-15T03:01:48.710Z,16.20
2023-02-15T03:02:48.773Z,16.21
2023-02-15T03:03:48.705Z,16.23
2023-02-15T03:04:48.751Z,16.22
2023-02-15T03:05:48.808Z,16.21
2023-02-15T03:06:48.803Z,16.18
2023-02-15T03:07:48.864Z,16.22
2023-02-15T03:08:48.870Z,16.21
2023-02-15T03:09:48.918Z,16.20
2023-02-15T03:10:48.937Z,16.22
2023-02-15T03:11:48.950Z,16.18
2023-02-15T03:12:49.058Z,16.21
2023-02-15T03:13:49.097Z,16.17
2023-02-15T03:14:49.124Z,16.11
2023-02-15T03:15:49.206Z,16.12
2023-02-15T03:16:49.251Z,16.15
2023-02-15T03:17:49.332Z,16.11
2023-02-15T03:18:49.311Z,16.11
2023-02-15T03:19:49.381Z,16.09
2023-02-15T03:20:49.431Z,16.08
2023-02-15T03:21:49.460Z,16.09
2023-02-15T03:22:49.551Z,16.09
2023-02-15T03:23:49.572Z,16.09
2023-02-15T03:24:49.620Z,16.08
2023-02-15T03:25:49.692Z,16.11
2023-02-15T03:26:49.694Z,16.15
2023-02-15T03:27:49.765Z,16.12
2023-02-15T03:28:49.854Z,16.17
2023-02-15T03:29:49.969Z,16.14
2023-02-15T03:30:49.950Z,16.14
2023-02-15T03:31:50.193Z,16.06
2023-02-15T03:32:50.029Z,16.08
2023-02-15T03:33:50.114Z,16.09
2023-02-15T03:34:50.168Z,16.05
2023-02-15T03:35:50.253Z,16.05
2023-02-15T03:36:50.968Z,16.06
2023-02-15T03:37:50.526Z,16.05
2023-02-15T03:39:50.452Z,16.11
2023-02-15T04:31:52.495Z,15.75
2023-02-15T04:32:52.362Z,15.74
2023-02-15T04:33:52.385Z,15.80
2023-02-15T04:34:52.386Z,15.75
2023-02-15T04:35:52.383Z,15.73
2023-02-15T04:36:52.428Z,15.68
2023-02-15T04:37:52.425Z,15.71
2023-02-15T04:38:52.413Z,15.70
2023-02-15T04:39:52.446Z,15.71
2023-02-15T04:40:52.455Z,15.70
2023-02-15T04:41:52.453Z,15.70
2023-02-15T04:42:52.515Z,15.74
2023-02-15T04:43:52.487Z,15.70
2023-02-15T04:44:52.482Z,15.68
2023-02-15T04:45:52.587Z,15.68
2023-02-15T04:46:52.538Z,15.73
2023-02-15T04:47:52.523Z,15.73
2023-02-15T04:48:52.557Z,15.70
2023-02-15T04:49:52.513Z,15.67
2023-02-15T04:50:52.518Z,15.71
2023-02-15T04:51:52.549Z,15.70
2023-02-15T04:52:52.575Z,15.64
2023-02-15T04:53:52.578Z,15.70
2023-02-15T04:54:52.541Z,15.70
2023-02-15T04:55:52.545Z,15.67
2023-02-15T04:56:52.566Z,15.67
2023-02-15T04:57:52.580Z,15.67
2023-02-15T04:58:52.553Z,15.66
2023-02-15T04:59:52.562Z,15.72
2023-02-15T05:00:52.586Z,15.67
2023-02-15T05:01:52.582Z,15.70
2023-02-15T05:02:52.564Z,15.70
2023-02-15T05:03:52.598Z,15.65
2023-02-15T05:04:52.597Z,15.67
2023-02-15T05:05:52.609Z,15.72
2023-02-15T05:06:52.624Z,15.70
2023-02-15T05:07:52.624Z,15.71
2023-02-15T05:08:52.654Z,15.68
2023-02-15T05:09:52.685Z,15.70
2023-02-15T05:10:52.701Z,15.68
2023-02-15T05:11:52.688Z,15.72
2023-02-15T05:12:52.731Z,15.70
2023-02-15T05:13:52.752Z,15.76
2023-02-15T05:14:52.737Z,15.71
2023-02-15T05:15:52.846Z,15.73
2023-02-15T05:16:52.856Z,15.71
2023-02-15T05:17:52.827Z,15.69
2023-02-15T05:18:52.844Z,15.69
2023-02-15T05:19:52.816Z,15.71
2023-02-15T05:20:52.870Z,15.71
2023-02-15T05:21:52.866Z,15.76
2023-02-15T05:22:52.834Z,15.77
2023-02-15T05:23:52.893Z,15.76
2023-02-15T05:24:52.873Z,15.71
2023-02-15T05:25:52.937Z,15.77
2023-02-15T05:26:52.903Z,15.71
2023-02-15T05:27:52.913Z,15.73
2023-02-15T05:28:52.890Z,15.72
2023-02-15T05:29:53.018Z,15.77
2023-02-15T05:30:53.127Z,15.74
2023-02-15T05:31:53.183Z,15.72
2023-02-15T05:32:53.034Z,15.74
2023-02-15T05:33:53.006Z,15.71
2023-02-15T05:34:53.059Z,15.74
2023-02-15T05:35:53.038Z,15.75
2023-02-15T05:36:53.083Z,15.71
2023-02-15T05:37:53.102Z,15.69
2023-02-15T05:38:53.117Z,15.74
2023-02-15T05:39:53.127Z,15.71
2023-02-15T05:40:53.137Z,15.71
2023-02-15T05:41:53.133Z,15.72
2023-02-15T05:42:53.196Z,15.72
2023-02-15T05:43:53.194Z,15.71
2023-02-15T05:44:53.217Z,15.69
2023-02-15T05:45:53.307Z,15.72
2023-02-15T05:46:53.228Z,15.72
2023-02-15T05:47:53.275Z,15.74
2023-02-15T05:48:53.265Z,15.68
2023-02-15T05:49:53.277Z,15.69
2023-02-15T05:50:53.283Z,15.68
2023-02-15T05:51:53.281Z,15.69
2023-02-15T05:52:53.305Z,15.72
2023-02-15T05:53:53.382Z,15.73
2023-02-15T05:54:53.297Z,15.63
2023-02-15T05:55:53.359Z,15.66
2023-02-15T05:56:53.348Z,15.71
2023-02-15T05:57:53.322Z,15.68
2023-02-15T05:58:53.360Z,15.71
2023-02-15T05:59:53.379Z,15.68
2023-02-15T06:07:13.390Z,15.66
2023-02-15T06:33:19.135Z,15.65
2023-02-15T06:46:11.377Z,15.59
2023-02-15T08:20:11.182Z,15.42
2023-02-15T08:59:10.933Z,15.40
2023-02-15T09:00:10.892Z,15.41
2023-02-15T09:01:10.866Z,15.36
2023-02-15T09:02:10.951Z,15.44
2023-02-15T09:03:10.859Z,15.43
2023-02-15T09:04:10.865Z,15.36
2023-02-15T09:05:10.877Z,15.43
2023-02-15T09:06:10.842Z,15.38
2023-02-15T09:07:10.804Z,15.43
2023-02-15T09:08:10.819Z,15.38
2023-02-15T09:09:10.813Z,15.43
2023-02-15T09:10:10.769Z,15.44
2023-02-15T09:11:10.765Z,15.38
2023-02-15T09:12:10.751Z,15.44
2023-02-15T09:13:10.779Z,15.38
2023-02-15T09:14:10.744Z,15.44
2023-02-15T09:15:10.733Z,15.44
2023-02-15T09:16:10.756Z,15.38
2023-02-15T09:17:10.707Z,15.41
2023-02-15T09:18:10.678Z,15.44
2023-02-15T09:19:10.662Z,15.40
2023-02-15T09:20:10.703Z,15.37
2023-02-15T09:21:10.609Z,15.35
2023-02-15T09:22:10.606Z,15.37
2023-02-15T09:23:21.905Z,15.37
2023-02-15T09:24:11.567Z,15.35
2023-02-15T09:25:10.554Z,15.34
2023-02-15T09:26:10.506Z,15.35
2023-02-15T09:27:10.517Z,15.32
2023-02-15T09:28:11.855Z,15.35
2023-02-15T09:29:10.433Z,15.38
2023-02-15T09:30:10.499Z,15.38
2023-02-15T09:31:10.441Z,15.40
2023-02-15T09:32:10.377Z,15.35
2023-02-15T09:33:10.311Z,15.35
2023-02-15T09:34:10.288Z,15.37
2023-02-15T09:35:10.254Z,15.37
2023-02-15T09:36:10.217Z,15.35
2023-02-15T09:37:10.204Z,15.29
2023-02-15T09:38:10.172Z,15.41
2023-02-15T09:39:10.170Z,15.38
2023-02-15T09:40:10.145Z,15.35
2023-02-15T09:41:10.089Z,15.37
2023-02-15T09:42:10.094Z,15.38
2023-02-15T09:43:10.099Z,15.38
2023-02-15T09:44:10.179Z,15.37
2023-02-15T09:45:10.183Z,15.32
2023-02-15T09:46:10.290Z,15.38
2023-02-15T09:47:10.229Z,15.35
2023-02-15T09:48:10.219Z,15.35
2023-02-15T09:49:10.269Z,15.40
2023-02-15T09:50:10.303Z,15.34
2023-02-15T09:51:10.302Z,15.35
2023-02-15T09:52:10.292Z,15.35
2023-02-15T09:53:10.361Z,15.35
2023-02-15T09:54:10.284Z,15.32
2023-02-15T09:55:10.297Z,15.35
2023-02-15T09:56:10.231Z,15.29
2023-02-15T09:57:10.223Z,15.31
2023-02-15T09:58:10.224Z,15.31
2023-02-15T09:59:10.208Z,15.32
2023-02-15T10:00:10.201Z,15.32
2023-02-15T10:01:10.263Z,15.32
2023-02-15T10:02:10.148Z,15.29
2023-02-15T10:03:10.120Z,15.29
2023-02-15T10:04:10.201Z,15.31
2023-02-15T10:05:10.166Z,15.31
2023-02-15T10:06:10.117Z,15.30
2023-02-15T10:07:10.124Z,15.28
2023-02-15T10:08:10.145Z,15.28
2023-02-15T10:09:10.094Z,15.28
2023-02-15T10:10:10.101Z,15.28
2023-02-15T10:11:10.097Z,15.29
2023-02-15T10:12:10.077Z,15.29
2023-02-15T10:13:10.066Z,15.28
2023-02-15T10:14:10.069Z,15.32
2023-02-15T10:15:10.083Z,15.31
2023-02-15T10:16:10.048Z,15.28
2023-02-15T10:17:10.057Z,15.28
2023-02-15T10:18:10.127Z,15.28
2023-02-15T10:19:10.050Z,15.23
2023-02-15T10:20:10.020Z,15.25
2023-02-15T10:21:10.017Z,15.23
2023-02-15T10:22:10.022Z,15.25
2023-02-15T10:23:09.992Z,15.25
2023-02-15T10:24:09.939Z,15.23
2023-02-15T10:25:09.995Z,15.25
2023-02-15T10:26:09.889Z,15.22
2023-02-15T10:27:09.890Z,15.22
2023-02-15T10:28:09.862Z,15.19
2023-02-15T10:29:09.884Z,15.23
2023-02-15T10:30:09.897Z,15.22
2023-02-15T10:31:09.928Z,15.25
2023-02-15T10:32:09.923Z,15.19
2023-02-15T10:33:09.754Z,15.27
2023-02-15T10:34:09.800Z,15.20
2023-02-15T10:35:09.780Z,15.20
2023-02-15T10:36:09.782Z,15.26
2023-02-15T10:37:09.783Z,15.26
2023-02-15T10:38:09.741Z,15.28
2023-02-15T10:39:09.743Z,15.25
2023-02-15T10:40:09.698Z,15.26
2023-02-15T10:41:09.694Z,15.26
2023-02-15T10:42:09.654Z,15.33
2023-02-15T10:43:09.621Z,15.30
2023-02-15T10:44:09.647Z,15.33
2023-02-15T10:45:09.639Z,15.30
2023-02-15T10:46:09.668Z,15.30
2023-02-15T10:47:12.400Z,15.30
2023-02-15T10:48:09.560Z,15.30
2023-02-15T10:49:09.520Z,15.28
2023-02-15T10:50:09.497Z,15.35
2023-02-15T10:51:09.464Z,15.31
2023-02-15T10:52:09.422Z,15.33
2023-02-15T10:53:09.459Z,15.30
2023-02-15T10:54:09.387Z,15.27
2023-02-15T10:55:09.362Z,15.28
2023-02-15T10:56:09.337Z,15.31
2023-02-15T10:57:09.310Z,15.27
2023-02-15T10:58:09.269Z,15.30
2023-02-15T10:59:09.317Z,15.27
2023-02-15T11:00:09.196Z,15.28
2023-02-15T11:01:09.289Z,15.27
2023-02-15T11:02:09.140Z,15.30
2023-02-15T11:03:09.103Z,15.22
2023-02-15T11:04:09.154Z,15.19
2023-02-15T11:05:09.189Z,15.19
2023-02-15T11:06:09.042Z,15.23
2023-02-15T11:07:09.016Z,15.19
2023-02-15T11:08:08.997Z,15.23
2023-02-15T11:09:09.008Z,15.22
2023-02-15T11:10:08.923Z,15.22
2023-02-15T11:11:08.875Z,15.16
2023-02-15T11:12:08.831Z,15.21
2023-02-15T11:13:08.841Z,15.19
2023-02-15T11:14:08.746Z,15.19
2023-02-15T11:15:08.711Z,15.17
2023-02-15T11:16:08.766Z,15.22
2023-02-15T11:17:08.656Z,15.12
2023-02-15T11:18:08.671Z,15.20
2023-02-15T11:19:08.613Z,15.17
2023-02-15T11:20:08.591Z,15.18
2023-02-15T11:22:08.528Z,15.19
2023-02-15T11:23:08.509Z,15.17
2023-02-15T11:24:08.438Z,15.19
2023-02-15T11:25:08.420Z,15.14
2023-02-15T11:26:08.394Z,15.19
2023-02-15T11:27:08.362Z,15.17
2023-02-15T11:28:08.370Z,15.19
2023-02-15T11:29:08.250Z,15.17
2023-02-15T11:30:08.261Z,15.16
2023-02-15T11:31:08.287Z,15.19
2023-02-15T11:32:08.289Z,15.21
2023-02-15T11:33:08.098Z,15.16
2023-02-15T11:34:08.067Z,15.14
2023-02-15T11:35:08.040Z,15.14
2023-02-15T11:36:08.027Z,15.23
2023-02-15T11:37:07.977Z,15.24
2023-02-15T11:38:07.971Z,15.22
2023-02-15T11:39:07.920Z,15.19
2023-02-15T11:40:07.868Z,15.24
2023-02-15T11:41:07.886Z,15.22
2023-02-15T11:42:07.841Z,15.24
2023-02-15T11:43:07.814Z,15.25
2023-02-15T11:44:07.761Z,15.21
2023-02-15T11:45:07.752Z,15.24
2023-02-15T11:46:07.708Z,15.24
2023-02-15T11:47:07.647Z,15.27
2023-02-15T11:48:07.647Z,15.27
2023-02-15T11:49:07.584Z,15.22
2023-02-15T11:50:07.638Z,15.27
2023-02-15T11:51:07.564Z,15.21
2023-02-15T11:52:07.475Z,15.21
2023-02-15T11:53:07.496Z,15.19
2023-02-15T11:54:07.442Z,15.22
2023-02-15T11:55:07.396Z,15.19
2023-02-15T11:56:07.412Z,15.22
2023-02-15T11:57:07.360Z,15.21
2023-02-15T11:58:07.314Z,15.14
2023-02-15T11:59:07.314Z,15.24
2023-02-15T12:00:07.258Z,15.17
2023-02-15T12:01:07.225Z,15.16
2023-02-15T12:02:07.252Z,15.13
2023-02-15T12:03:07.190Z,15.14
2023-02-15T12:04:07.170Z,15.13
2023-02-15T12:05:07.065Z,15.16
2023-02-15T12:06:07.057Z,15.14
2023-02-15T12:07:06.999Z,15.14
2023-02-15T12:08:07.006Z,15.13
2023-02-15T12:09:06.973Z,15.13
2023-02-15T12:10:06.935Z,15.10
2023-02-15T12:11:06.944Z,15.13
2023-02-15T12:12:06.895Z,15.12
2023-02-15T12:13:06.832Z,15.13
2023-02-15T12:14:06.813Z,15.10
2023-02-15T12:15:06.809Z,15.07
2023-02-15T12:16:06.976Z,15.05
2023-02-15T12:17:06.725Z,15.07
2023-02-15T12:18:06.682Z,15.05
2023-02-15T12:19:06.686Z,15.05
2023-02-15T12:20:06.589Z,15.01
2023-02-15T12:21:06.576Z,15.02
2023-02-15T12:22:08.615Z,15.04
2023-02-15T12:23:06.514Z,15.07
2023-02-15T12:24:06.464Z,15.02
2023-02-15T12:25:06.422Z,15.02
2023-02-15T12:26:06.413Z,15.06
2023-02-15T12:27:06.388Z,15.01
2023-02-15T12:28:06.323Z,15.02
2023-02-15T12:29:06.282Z,15.03
2023-02-15T12:30:06.341Z,15.02
2023-02-15T12:31:06.428Z,14.99
2023-02-15T12:32:06.399Z,14.99
2023-02-15T12:33:06.185Z,14.98
2023-02-15T12:34:06.144Z,14.99
2023-02-15T12:35:06.141Z,14.98
2023-02-15T12:40:05.992Z,14.92
2023-02-15T12:41:05.987Z,14.99
2023-02-15T12:42:05.929Z,14.93
2023-02-15T12:43:09.067Z,14.92
2023-02-15T12:44:05.928Z,14.96
2023-02-15T12:45:05.857Z,14.96
2023-02-15T12:46:05.853Z,14.93
2023-02-15T12:47:05.912Z,14.93
2023-02-15T12:48:05.781Z,14.97
2023-02-15T12:49:05.766Z,14.96
2023-02-15T12:50:05.806Z,14.93
2023-02-15T12:51:05.853Z,14.99
2023-02-15T12:52:05.656Z,14.95
2023-02-15T12:53:05.658Z,14.92
2023-02-15T12:54:05.646Z,14.89
2023-02-15T12:55:05.590Z,14.99
2023-02-15T12:56:05.561Z,14.97
2023-02-15T12:57:05.530Z,14.90
2023-02-15T12:58:05.510Z,14.99
2023-02-15T12:59:05.475Z,14.96
2023-02-15T13:00:05.489Z,14.97
2023-02-15T13:01:05.594Z,14.93
2023-02-15T13:02:05.429Z,14.96
2023-02-15T13:03:05.345Z,14.93
2023-02-15T13:04:05.339Z,14.90
2023-02-15T13:05:05.560Z,14.91
2023-02-15T13:06:05.266Z,14.90
2023-02-15T13:07:05.222Z,14.96
2023-02-15T13:08:05.220Z,14.99
2023-02-15T13:09:05.180Z,14.91
2023-02-15T13:10:05.139Z,14.97
2023-02-15T13:11:05.204Z,15.00
2023-02-15T13:12:05.086Z,14.94
2023-02-15T13:13:05.062Z,14.94
2023-02-15T13:14:05.025Z,14.97
2023-02-15T13:15:05.103Z,14.94
2023-02-15T13:16:05.131Z,14.97
2023-02-15T13:17:07.140Z,14.96
2023-02-15T13:18:04.927Z,14.96
2023-02-15T13:19:04.903Z,14.94
2023-02-15T13:20:04.878Z,14.94
2023-02-15T13:21:05.151Z,14.96
2023-02-15T13:22:04.832Z,14.91
2023-02-15T13:23:04.823Z,14.96
2023-02-15T13:24:04.830Z,14.96
2023-02-15T13:25:04.763Z,14.91
2023-02-15T13:26:04.753Z,14.91
2023-02-15T13:27:14.889Z,15.00
2023-02-15T13:28:05.644Z,14.97
2023-02-15T13:29:04.634Z,15.02
2023-02-15T13:30:04.635Z,14.97
2023-02-15T13:31:04.976Z,14.94
2023-02-15T13:32:04.663Z,14.97
2023-02-15T13:33:04.561Z,15.00
2023-02-15T13:34:04.488Z,14.94
2023-02-15T13:35:06.506Z,15.02
2023-02-15T13:36:04.439Z,15.02
2023-02-15T13:37:04.480Z,15.00
2023-02-15T13:38:04.409Z,15.02
2023-02-15T13:39:04.360Z,15.00
2023-02-15T13:40:04.315Z,15.02
2023-02-15T13:41:04.502Z,14.99
2023-02-15T13:42:04.260Z,14.94
2023-02-15T13:43:04.205Z,14.99
2023-02-15T13:44:04.202Z,14.93
2023-02-15T13:45:04.208Z,14.99
2023-02-15T13:46:04.657Z,15.07
2023-02-15T13:47:04.121Z,14.96
2023-02-15T13:48:04.078Z,14.97
2023-02-15T13:49:04.092Z,15.02
2023-02-15T13:50:04.012Z,15.00
2023-02-15T13:51:03.997Z,14.94
2023-02-15T13:52:03.978Z,14.97
2023-02-15T13:53:03.909Z,15.02
2023-02-15T13:54:03.877Z,15.05
2023-02-15T13:55:03.915Z,15.00
2023-02-15T13:56:04.115Z,15.00
2023-02-15T13:57:03.833Z,15.08
2023-02-15T13:58:03.836Z,15.00
2023-02-15T13:59:03.846Z,15.00
2023-02-15T14:00:03.789Z,15.03
2023-02-15T14:01:04.206Z,14.99
2023-02-15T14:02:03.801Z,15.08
2023-02-15T14:03:03.782Z,15.05
2023-02-15T14:04:03.805Z,15.03
2023-02-15T14:05:03.735Z,14.99
2023-02-15T14:06:03.794Z,15.03
2023-02-15T14:07:03.748Z,15.00
2023-02-15T14:08:03.759Z,14.98
2023-02-15T14:09:03.761Z,15.02
2023-02-15T14:10:03.775Z,15.06
2023-02-15T14:11:04.116Z,15.00
2023-02-15T14:12:03.735Z,15.09
2023-02-15T14:13:03.701Z,15.06
2023-02-15T14:14:03.695Z,15.04
2023-02-15T14:15:03.698Z,15.05
2023-02-15T14:16:03.690Z,15.03
2023-02-15T14:17:07.400Z,15.08
2023-02-15T14:18:03.695Z,15.01
2023-02-15T14:19:03.616Z,15.10
2023-02-15T14:20:03.589Z,14.98
2023-02-15T14:21:04.351Z,15.06
2023-02-15T14:22:03.516Z,15.03
2023-02-15T14:23:03.483Z,15.07
2023-02-15T14:24:03.471Z,15.04
2023-02-15T14:25:03.400Z,15.03
2023-02-15T14:26:03.412Z,15.01
2023-02-15T14:27:03.370Z,14.98
2023-02-15T14:28:03.314Z,14.98
2023-02-15T14:29:03.266Z,15.01
2023-02-15T14:30:03.317Z,14.98
2023-02-15T14:31:03.735Z,15.00
2023-02-15T14:32:03.220Z,14.96
2023-02-15T14:33:03.125Z,14.91
2023-02-15T14:34:03.072Z,14.96
2023-02-15T14:35:03.096Z,14.98
2023-02-15T14:36:03.037Z,14.98
2023-02-15T14:37:02.961Z,14.89
2023-02-15T14:38:02.975Z,14.91
2023-02-15T14:39:05.125Z,15.03
2023-02-15T14:40:02.875Z,14.98
2023-02-15T14:41:03.723Z,14.95
2023-02-15T14:42:02.802Z,15.00
2023-02-15T14:43:02.795Z,14.97
2023-02-15T14:44:02.752Z,14.98
2023-02-15T14:45:02.682Z,15.01
2023-02-15T14:46:02.704Z,15.03
2023-02-15T14:47:02.630Z,15.01
2023-02-15T14:48:02.640Z,14.98
2023-02-15T14:49:02.562Z,15.01
2023-02-15T14:50:02.555Z,15.04
2023-02-15T14:51:02.928Z,15.03
2023-02-15T14:52:02.453Z,15.03
2023-02-15T14:53:02.425Z,15.10
2023-02-15T14:54:02.397Z,15.06
2023-02-15T14:55:02.406Z,15.03
2023-02-15T14:56:02.348Z,14.95
2023-02-15T14:57:02.334Z,14.99
2023-02-15T14:58:02.296Z,15.01
2023-02-15T14:59:02.265Z,15.04
2023-02-15T15:00:02.303Z,15.03
2023-02-15T15:01:02.556Z,15.06
2023-02-15T15:02:02.174Z,15.01
2023-02-15T15:03:02.086Z,15.03
2023-02-15T15:04:02.160Z,14.95
2023-02-15T15:05:02.044Z,14.98
2023-02-15T15:06:05.203Z,14.92
2023-02-15T15:07:01.992Z,15.00
2023-02-15T15:08:01.952Z,14.96
2023-02-15T15:09:01.908Z,14.95
2023-02-15T15:10:01.908Z,14.96
2023-02-15T15:11:01.881Z,15.07
2023-02-15T15:12:01.821Z,14.99
2023-02-15T15:13:01.795Z,15.03
2023-02-15T15:14:01.777Z,15.04
2023-02-15T15:15:01.732Z,15.04
2023-02-15T15:16:02.097Z,15.03
2023-02-15T15:17:01.664Z,15.03
2023-02-15T15:18:01.656Z,15.04
2023-02-15T15:19:01.640Z,15.01
2023-02-15T15:20:01.609Z,15.03
2023-02-15T15:21:01.636Z,15.07
2023-02-15T15:22:01.551Z,15.07
2023-02-15T15:23:01.521Z,15.04
2023-02-15T15:24:01.506Z,15.04
2023-02-15T15:25:01.479Z,15.06
2023-02-15T15:26:01.693Z,15.08
2023-02-15T15:27:01.408Z,15.07
2023-02-15T15:28:01.410Z,15.06
2023-02-15T15:29:01.388Z,15.07
2023-02-15T15:30:01.380Z,15.10
2023-02-15T15:31:01.509Z,15.07
2023-02-15T15:32:01.433Z,15.13
2023-02-15T15:33:01.278Z,15.12
2023-02-15T15:34:01.250Z,15.08
2023-02-15T15:35:01.246Z,15.08
2023-02-15T15:36:01.548Z,15.06
2023-02-15T15:37:01.235Z,15.04
2023-02-15T15:38:01.215Z,15.13
2023-02-15T15:39:01.185Z,15.06
2023-02-15T15:40:01.137Z,15.07
2023-02-15T15:41:01.099Z,15.08
2023-02-15T15:42:01.117Z,15.04
2023-02-15T15:43:01.013Z,15.05
2023-02-15T15:44:01.013Z,15.06
2023-02-15T15:45:00.975Z,15.12
2023-02-15T15:46:01.342Z,15.05
2023-02-15T15:47:00.956Z,15.10
2023-02-15T15:48:07.061Z,15.11
2023-02-15T15:49:01.890Z,15.10
2023-02-15T15:50:00.895Z,15.14
2023-02-15T15:51:00.869Z,15.11
2023-02-15T15:52:00.857Z,15.13
2023-02-15T15:53:00.822Z,15.16
2023-02-15T15:54:00.834Z,15.11
2023-02-15T15:55:00.781Z,15.11
2023-02-15T15:56:01.077Z,15.11
2023-02-15T15:57:00.748Z,15.11
2023-02-15T15:58:00.764Z,15.16
2023-02-15T15:59:00.713Z,15.17
2023-02-15T16:00:00.714Z,15.17
2023-02-15T16:01:00.679Z,15.11
2023-02-15T16:02:00.699Z,15.08
2023-02-15T16:03:00.679Z,15.14
2023-02-15T16:04:00.569Z,15.11
2023-02-15T16:05:00.601Z,15.12
2023-02-15T16:06:00.747Z,15.17
2023-02-15T16:07:00.593Z,15.18
2023-02-15T16:08:00.514Z,15.15
2023-02-15T16:09:00.474Z,15.15
2023-02-15T16:10:00.521Z,15.15
2023-02-15T16:11:00.436Z,15.17
2023-02-15T16:12:00.445Z,15.21
2023-02-15T16:13:00.406Z,15.22
2023-02-15T16:14:00.380Z,15.23
2023-02-15T16:15:00.436Z,15.18
2023-02-15T16:16:00.532Z,15.18
2023-02-15T16:17:00.435Z,15.18
2023-02-15T16:18:00.445Z,15.21
2023-02-15T16:19:00.558Z,15.24
2023-02-15T16:20:00.454Z,15.24
2023-02-15T16:21:00.475Z,15.21
2023-02-15T16:22:00.466Z,15.20
2023-02-15T16:23:00.474Z,15.26
2023-02-15T16:24:00.488Z,15.21
2023-02-15T16:25:00.546Z,15.24
2023-02-15T16:26:00.834Z,15.30
2023-02-15T16:27:00.514Z,15.29
2023-02-15T16:28:00.522Z,15.29
2023-02-15T16:29:00.536Z,15.30
2023-02-15T16:30:00.585Z,15.26
2023-02-15T16:31:00.667Z,15.29
2023-02-15T16:32:00.630Z,15.27
2023-02-15T16:33:00.583Z,15.27
2023-02-15T16:34:00.596Z,15.33
2023-02-15T16:35:00.599Z,15.30
2023-02-15T16:36:00.924Z,15.32
2023-02-15T16:37:00.608Z,15.27
2023-02-15T16:38:00.624Z,15.33
2023-02-15T16:39:00.640Z,15.24
2023-02-15T16:40:00.651Z,15.27
2023-02-15T16:41:00.748Z,15.30
2023-02-15T16:42:00.680Z,15.38
2023-02-15T16:43:00.725Z,15.30
2023-02-15T16:44:00.727Z,15.35
2023-02-15T16:45:00.706Z,15.36
2023-02-15T16:46:00.782Z,15.38
2023-02-15T16:47:00.793Z,15.36
2023-02-15T16:48:00.768Z,15.41
2023-02-15T16:49:00.760Z,15.41
2023-02-15T16:50:00.920Z,15.41
2023-02-15T16:51:01.361Z,15.42
2023-02-15T16:52:00.828Z,15.36